createdAt,value
2022-12-31T00:01:52.161Z,5.38
2022-12-31T00:04:19.080Z,5.28
2022-12-31T00:06:47.177Z,7.35
2022-12-31T00:09:14.021Z,7.63
2022-12-31T00:11:40.973Z,5.72
2022-12-31T00:14:07.802Z,6.80
2022-12-31T00:16:37.912Z,6.88
2022-12-31T00:19:06.767Z,7.07
2022-12-31T00:21:34.910Z,4.85
2022-12-31T00:24:02.914Z,6.70
2022-12-31T00:26:32.723Z,5.53
2022-12-31T00:29:00.845Z,4.90
2022-12-31T00:31:36.667Z,6.80
2022-12-31T00:34:04.369Z,6.82
2022-12-31T00:36:34.770Z,8.77
2022-12-31T00:39:03.057Z,8.80
2022-12-31T00:41:30.449Z,5.50
2022-12-31T00:43:57.549Z,6.60
2022-12-31T00:46:25.261Z,9.07
2022-12-31T00:48:53.140Z,5.70
2022-12-31T00:51:24.324Z,4.22
2022-12-31T00:53:51.368Z,5.07
2022-12-31T00:56:21.860Z,5.78
2022-12-31T00:58:49.583Z,5.38
2022-12-31T01:01:22.921Z,5.63
2022-12-31T01:03:52.140Z,5.20
2022-12-31T01:06:20.090Z,4.30
2022-12-31T01:08:49.333Z,3.65
2022-12-31T01:11:19.658Z,5.95
2022-12-31T01:13:47.719Z,4.07
2022-12-31T01:16:15.498Z,3.85
2022-12-31T01:18:42.359Z,4.75
2022-12-31T01:21:14.841Z,5.38
2022-12-31T01:23:42.318Z,3.85
2022-12-31T01:26:11.281Z,4.50
2022-12-31T01:28:38.173Z,4.82
2022-12-31T01:31:15.238Z,5.13
2022-12-31T01:33:42.732Z,4.10
2022-12-31T01:36:23.367Z,5.47
2022-12-31T01:38:53.264Z,4.65
2022-12-31T01:41:24.305Z,5.10
2022-12-31T01:43:56.935Z,4.57
2022-12-31T01:46:44.019Z,4.55
2022-12-31T01:49:13.896Z,4.30
2022-12-31T01:51:43.716Z,3.90
2022-12-31T01:54:15.145Z,4.80
2022-12-31T01:56:44.273Z,4.40
2022-12-31T01:59:13.158Z,4.78
2022-12-31T02:01:40.141Z,5.93
2022-12-31T02:04:11.175Z,5.75
2022-12-31T02:06:43.001Z,4.82
2022-12-31T02:09:12.131Z,4.78
2022-12-31T02:11:38.995Z,5.00
2022-12-31T02:14:13.844Z,5.25
2022-12-31T02:16:59.094Z,5.72
2022-12-31T02:19:41.289Z,4.78
2022-12-31T02:22:29.246Z,5.78
2022-12-31T02:25:41.050Z,5.38
2022-12-31T02:28:36.856Z,8.27
2022-12-31T02:31:16.869Z,4.88
2022-12-31T02:34:02.669Z,6.90
2022-12-31T02:36:36.184Z,6.38
2022-12-31T02:39:06.140Z,8.80
2022-12-31T02:41:51.799Z,6.65
2022-12-31T02:44:26.354Z,7.93
2022-12-31T02:47:08.541Z,9.23
2022-12-31T02:50:12.867Z,9.05
2022-12-31T02:53:03.693Z,5.97
2022-12-31T02:55:59.055Z,7.30
2022-12-31T02:58:54.112Z,6.85
2022-12-31T03:01:46.978Z,8.40
2022-12-31T03:04:33.666Z,8.23
2022-12-31T03:07:05.807Z,7.57
2022-12-31T03:09:33.069Z,9.18
2022-12-31T03:12:19.381Z,7.45
2022-12-31T03:14:46.471Z,6.70
2022-12-31T03:17:13.631Z,9.10
2022-12-31T03:19:58.920Z,6.88
2022-12-31T03:22:28.849Z,10.38
2022-12-31T03:25:19.544Z,8.77
2022-12-31T03:27:47.569Z,7.75
2022-12-31T03:30:16.770Z,8.90
2022-12-31T03:32:45.354Z,8.02
2022-12-31T03:35:13.801Z,7.18
2022-12-31T03:37:41.734Z,6.93
2022-12-31T03:40:11.147Z,8.00
2022-12-31T03:42:38.170Z,6.30
2022-12-31T03:45:05.844Z,6.40
2022-12-31T03:47:32.743Z,7.47
2022-12-31T03:49:59.640Z,7.32
2022-12-31T03:52:26.468Z,6.18
2022-12-31T03:54:53.347Z,5.88
2022-12-31T03:57:20.198Z,4.82
2022-12-31T03:59:47.112Z,6.88
2022-12-31T04:02:14.125Z,5.10
2022-12-31T04:04:41.047Z,8.52
2022-12-31T04:07:08.061Z,6.53
2022-12-31T04:09:35.083Z,5.10
2022-12-31T04:12:01.943Z,7.32
2022-12-31T04:14:28.831Z,7.40
2022-12-31T04:16:55.703Z,6.60
2022-12-31T04:19:22.615Z,7.68
2022-12-31T04:21:49.464Z,7.03
2022-12-31T04:24:16.407Z,8.32
2022-12-31T04:26:44.108Z,9.68
2022-12-31T04:29:11.495Z,9.95
2022-12-31T04:31:38.477Z,7.55
2022-12-31T04:34:05.447Z,7.55
2022-12-31T04:36:32.644Z,8.60
2022-12-31T04:38:59.681Z,8.20
2022-12-31T04:41:27.194Z,7.22
2022-12-31T04:43:56.108Z,6.18
2022-12-31T04:46:31.892Z,7.18
2022-12-31T04:48:59.363Z,6.63
2022-12-31T04:51:28.365Z,9.25
2022-12-31T04:53:55.550Z,9.38
2022-12-31T04:56:22.995Z,8.65
2022-12-31T04:58:49.995Z,8.95
2022-12-31T05:01:17.083Z,8.80
2022-12-31T05:03:44.047Z,9.30
2022-12-31T05:06:20.070Z,5.97
2022-12-31T05:08:47.392Z,6.35
2022-12-31T05:11:14.617Z,10.30
2022-12-31T05:13:42.126Z,7.78
2022-12-31T05:16:09.894Z,4.63
2022-12-31T05:18:37.386Z,8.07
2022-12-31T05:21:04.553Z,5.90
2022-12-31T05:23:31.401Z,6.72
2022-12-31T05:25:59.737Z,8.95
2022-12-31T05:28:26.701Z,6.32
2022-12-31T05:30:53.826Z,7.90
2022-12-31T05:33:21.349Z,8.00
2022-12-31T05:35:48.221Z,7.20
2022-12-31T05:38:15.093Z,8.38
2022-12-31T05:40:41.899Z,7.10
2022-12-31T05:43:08.814Z,8.32
2022-12-31T05:45:35.651Z,9.48
2022-12-31T05:48:02.556Z,8.05
2022-12-31T05:50:29.554Z,6.20
2022-12-31T05:52:56.508Z,7.63
2022-12-31T05:55:23.780Z,8.25
2022-12-31T05:57:50.676Z,6.50
2022-12-31T06:00:17.721Z,6.38
2022-12-31T06:02:44.570Z,9.45
2022-12-31T06:05:12.347Z,7.18
2022-12-31T06:07:39.226Z,7.22
2022-12-31T06:10:06.713Z,5.82
2022-12-31T06:12:33.684Z,7.03
2022-12-31T06:15:00.618Z,10.52
2022-12-31T06:17:27.488Z,7.18
2022-12-31T06:19:54.399Z,7.75
2022-12-31T06:22:21.210Z,6.55
2022-12-31T06:24:48.045Z,8.57
2022-12-31T06:27:14.929Z,6.28
2022-12-31T06:29:41.880Z,10.68
2022-12-31T06:32:08.788Z,7.30
2022-12-31T06:34:35.800Z,8.55
2022-12-31T06:37:02.692Z,8.98
2022-12-31T06:39:29.578Z,10.65
2022-12-31T06:41:56.479Z,8.00
2022-12-31T06:44:23.374Z,5.55
2022-12-31T06:46:51.050Z,9.05
2022-12-31T06:49:18.074Z,9.18
2022-12-31T06:51:46.229Z,9.10
2022-12-31T06:54:13.723Z,9.43
2022-12-31T06:56:41.656Z,7.60
2022-12-31T06:59:25.994Z,7.38
2022-12-31T07:02:05.414Z,7.30
2022-12-31T07:05:07.799Z,7.50
2022-12-31T07:07:50.190Z,5.22
2022-12-31T07:10:30.722Z,9.30
2022-12-31T07:13:10.559Z,7.03
2022-12-31T07:16:10.373Z,6.55
2022-12-31T07:18:47.811Z,7.18
2022-12-31T07:21:19.219Z,6.55
2022-12-31T07:23:46.383Z,12.38
2022-12-31T07:26:56.131Z,7.75
2022-12-31T07:29:56.342Z,8.80
2022-12-31T07:32:43.519Z,6.95
2022-12-31T07:35:45.082Z,7.20
2022-12-31T07:38:17.719Z,7.93
2022-12-31T07:41:09.398Z,8.95
2022-12-31T07:43:50.203Z,15.27
2022-12-31T07:46:17.011Z,10.40
2022-12-31T07:48:44.105Z,10.00
2022-12-31T07:51:11.899Z,10.18
2022-12-31T07:53:38.976Z,9.20
2022-12-31T07:56:08.374Z,10.55
2022-12-31T07:58:56.383Z,8.82
2022-12-31T08:01:35.918Z,8.95
2022-12-31T08:04:18.601Z,10.32
2022-12-31T08:07:08.868Z,7.00
2022-12-31T08:09:41.743Z,8.38
2022-12-31T08:12:09.309Z,7.82
2022-12-31T08:14:44.321Z,7.78
2022-12-31T08:17:19.470Z,10.18
2022-12-31T08:19:46.936Z,8.00
2022-12-31T08:22:28.629Z,8.30
2022-12-31T08:25:08.925Z,7.03
2022-12-31T08:28:07.654Z,9.38
2022-12-31T08:31:14.042Z,6.50
2022-12-31T08:33:57.546Z,6.28
2022-12-31T08:36:41.708Z,5.88
2022-12-31T08:39:17.347Z,11.38
2022-12-31T08:41:51.732Z,15.05
2022-12-31T08:44:40.308Z,10.88
2022-12-31T08:47:17.174Z,8.82
2022-12-31T08:49:44.210Z,7.75
2022-12-31T08:52:16.573Z,7.78
2022-12-31T08:54:43.695Z,12.73
2022-12-31T08:57:29.187Z,10.98
2022-12-31T09:00:15.917Z,8.02
2022-12-31T09:03:16.233Z,7.35
2022-12-31T09:05:58.896Z,6.10
2022-12-31T09:08:28.504Z,10.30
2022-12-31T09:11:07.927Z,10.63
2022-12-31T09:13:56.223Z,10.02
2022-12-31T09:16:41.598Z,14.27
2022-12-31T09:19:10.292Z,8.60
2022-12-31T09:21:38.250Z,9.32
2022-12-31T09:24:09.354Z,10.43
2022-12-31T09:26:52.029Z,7.32
2022-12-31T09:29:47.858Z,9.13
2022-12-31T09:32:34.015Z,13.07
2022-12-31T09:35:11.777Z,9.35
2022-12-31T09:38:11.596Z,7.75
2022-12-31T09:40:57.458Z,8.90
2022-12-31T09:43:45.885Z,11.18
2022-12-31T09:46:38.663Z,10.38
2022-12-31T09:49:30.220Z,8.38
2022-12-31T09:52:24.846Z,10.15
2022-12-31T09:55:29.887Z,13.32
2022-12-31T09:58:31.445Z,10.57
2022-12-31T10:01:08.995Z,11.55
2022-12-31T10:04:00.801Z,10.70
2022-12-31T10:06:52.336Z,11.52
2022-12-31T10:09:45.195Z,9.23
2022-12-31T10:12:24.046Z,11.90
2022-12-31T10:15:09.458Z,11.25
2022-12-31T10:17:36.255Z,14.05
2022-12-31T10:20:15.253Z,8.93
2022-12-31T10:22:51.298Z,12.02
2022-12-31T10:25:38.623Z,12.80
2022-12-31T10:28:21.578Z,12.65
2022-12-31T10:31:30.931Z,11.50
2022-12-31T10:34:13.686Z,11.80
2022-12-31T10:37:03.397Z,12.52
2022-12-31T10:39:39.235Z,9.32
2022-12-31T10:42:14.770Z,10.85
2022-12-31T10:44:56.047Z,12.00
2022-12-31T10:47:41.829Z,10.65
2022-12-31T10:50:44.449Z,9.70
2022-12-31T10:53:18.297Z,12.50
2022-12-31T10:58:48.532Z,9.32
2022-12-31T11:01:30.693Z,9.82
2022-12-31T11:04:55.806Z,7.63
2022-12-31T11:07:44.163Z,13.90
2022-12-31T11:10:31.561Z,9.07
2022-12-31T11:13:19.624Z,11.07
2022-12-31T11:16:15.406Z,10.60
2022-12-31T11:19:05.366Z,9.00
2022-12-31T11:21:53.377Z,7.75
2022-12-31T11:24:31.635Z,12.23
2022-12-31T11:27:27.600Z,9.65
2022-12-31T11:30:12.890Z,8.55
2022-12-31T11:33:18.382Z,10.35
2022-12-31T11:36:15.477Z,12.38
2022-12-31T11:38:53.619Z,9.15
2022-12-31T11:41:34.840Z,11.40
2022-12-31T11:44:21.929Z,10.65
2022-12-31T11:47:25.902Z,14.25
2022-12-31T11:50:37.765Z,11.60
2022-12-31T11:53:24.058Z,14.93
2022-12-31T11:56:08.352Z,12.02
2022-12-31T11:58:35.357Z,11.82
2022-12-31T12:01:14.020Z,12.60
2022-12-31T12:03:43.758Z,10.30
2022-12-31T12:06:13.778Z,11.65
2022-12-31T12:08:41.555Z,11.93
2022-12-31T12:11:24.474Z,10.35
2022-12-31T12:13:51.884Z,12.40
2022-12-31T12:16:21.946Z,10.13
2022-12-31T12:18:51.688Z,10.00
2022-12-31T12:21:24.078Z,11.27
2022-12-31T12:23:59.225Z,10.32
2022-12-31T12:26:38.266Z,15.18
2022-12-31T12:29:22.143Z,11.52
2022-12-31T12:32:02.629Z,13.52
2022-12-31T12:34:39.475Z,16.13
2022-12-31T12:37:37.170Z,13.02
2022-12-31T12:40:04.989Z,12.10
2022-12-31T12:42:32.349Z,11.90
2022-12-31T12:45:10.678Z,13.02
2022-12-31T12:47:37.544Z,13.65
2022-12-31T12:50:06.495Z,13.35
2022-12-31T12:52:56.378Z,13.48
2022-12-31T12:55:54.369Z,9.85
2022-12-31T12:58:36.182Z,11.05
2022-12-31T13:01:22.797Z,14.27
2022-12-31T13:07:13.727Z,13.60
2022-12-31T13:09:54.530Z,10.40
2022-12-31T13:12:28.149Z,12.20
2022-12-31T13:15:12.851Z,12.50
2022-12-31T13:18:02.066Z,12.52
2022-12-31T13:20:38.318Z,11.75
2022-12-31T13:23:42.437Z,12.23
2022-12-31T13:26:24.808Z,9.02
2022-12-31T13:28:54.085Z,10.05
2022-12-31T13:31:33.756Z,12.38
2022-12-31T13:34:06.052Z,12.65
2022-12-31T13:36:37.879Z,13.15
2022-12-31T13:39:19.081Z,10.43
2022-12-31T13:41:53.801Z,11.10
2022-12-31T13:44:23.346Z,13.95
2022-12-31T13:47:13.142Z,10.40
2022-12-31T13:50:01.090Z,12.13
2022-12-31T13:52:40.068Z,10.63
2022-12-31T13:55:25.686Z,9.85
2022-12-31T13:58:01.094Z,13.05
2022-12-31T14:00:55.082Z,14.15
2022-12-31T14:03:39.969Z,9.82
2022-12-31T14:06:22.563Z,13.45
2022-12-31T14:08:49.630Z,13.02
2022-12-31T14:11:41.594Z,10.88
2022-12-31T14:14:29.064Z,11.00
2022-12-31T14:17:10.410Z,12.15
2022-12-31T14:19:55.828Z,10.80
2022-12-31T14:22:28.693Z,11.88
2022-12-31T14:24:59.266Z,12.80
2022-12-31T14:27:34.757Z,10.52
2022-12-31T14:30:06.935Z,12.43
2022-12-31T14:32:51.777Z,11.55
2022-12-31T14:35:46.945Z,9.15
2022-12-31T14:38:24.079Z,9.68
2022-12-31T14:41:35.465Z,10.90
2022-12-31T14:44:36.126Z,13.90
2022-12-31T14:47:36.942Z,10.65
2022-12-31T14:50:26.920Z,10.35
2022-12-31T14:52:59.940Z,12.00
2022-12-31T14:55:34.875Z,12.55
2022-12-31T15:00:57.592Z,9.32
2022-12-31T15:03:34.655Z,10.73
2022-12-31T15:06:22.692Z,12.50
2022-12-31T15:09:17.221Z,10.35
2022-12-31T15:12:11.245Z,13.40
2022-12-31T15:14:53.239Z,13.80
2022-12-31T15:17:57.247Z,9.15
2022-12-31T15:20:42.275Z,10.80
2022-12-31T15:23:25.804Z,12.90
2022-12-31T15:25:59.950Z,10.60
2022-12-31T15:28:33.761Z,12.25
2022-12-31T15:33:53.463Z,11.85
2022-12-31T15:36:23.482Z,11.55
2022-12-31T15:38:51.632Z,12.02
2022-12-31T15:41:55.888Z,15.93
2022-12-31T15:44:36.494Z,14.88
2022-12-31T15:47:29.583Z,14.38
2022-12-31T15:49:59.912Z,11.93
2022-12-31T15:52:42.283Z,14.18
2022-12-31T15:55:19.985Z,13.90
2022-12-31T15:57:47.369Z,15.95
2022-12-31T16:00:20.143Z,13.35
2022-12-31T16:02:50.776Z,9.80
2022-12-31T16:05:27.009Z,14.57
2022-12-31T16:07:58.360Z,11.77
2022-12-31T16:10:31.047Z,13.15
2022-12-31T16:12:59.127Z,11.05
2022-12-31T16:15:29.533Z,13.63
2022-12-31T16:18:05.416Z,14.75
2022-12-31T16:20:33.835Z,15.70
2022-12-31T16:23:03.212Z,11.40
2022-12-31T16:25:33.481Z,13.60
2022-12-31T16:28:02.989Z,11.48
2022-12-31T16:30:32.599Z,12.73
2022-12-31T16:33:05.708Z,11.40
2022-12-31T16:35:36.396Z,13.63
2022-12-31T16:38:03.676Z,12.77
2022-12-31T16:40:30.649Z,11.73
2022-12-31T16:42:57.613Z,14.68
2022-12-31T16:45:33.793Z,16.20
2022-12-31T16:48:17.480Z,15.50
2022-12-31T16:50:46.938Z,12.10
2022-12-31T16:53:20.448Z,13.15
2022-12-31T16:56:00.387Z,14.02
2022-12-31T16:58:37.437Z,11.82
2022-12-31T17:01:16.131Z,17.08
2022-12-31T17:03:46.948Z,12.35
2022-12-31T17:06:18.899Z,14.45
2022-12-31T17:09:00.907Z,18.85
2022-12-31T17:11:30.825Z,14.52
2022-12-31T17:14:07.252Z,15.80
2022-12-31T17:16:36.429Z,18.52
2022-12-31T17:19:04.034Z,19.85
2022-12-31T17:21:32.360Z,18.67
2022-12-31T17:24:05.610Z,17.48
2022-12-31T17:26:37.941Z,16.80
2022-12-31T17:29:06.038Z,19.17
2022-12-31T17:31:36.508Z,17.92
2022-12-31T17:34:12.581Z,18.73
2022-12-31T17:36:52.175Z,16.30
2022-12-31T17:39:22.353Z,18.52
2022-12-31T17:41:51.933Z,15.43
2022-12-31T17:44:22.388Z,15.60
2022-12-31T17:46:50.391Z,18.90
2022-12-31T17:49:19.296Z,16.42
2022-12-31T17:51:47.944Z,20.17
2022-12-31T17:54:18.870Z,14.80
2022-12-31T17:56:45.839Z,15.68
2022-12-31T17:59:23.314Z,16.52
2022-12-31T18:01:50.224Z,13.77
2022-12-31T18:04:19.134Z,17.05
2022-12-31T18:06:46.148Z,15.73
2022-12-31T18:09:12.996Z,15.25
2022-12-31T18:11:41.247Z,18.80
2022-12-31T18:14:08.335Z,14.82
2022-12-31T18:16:35.262Z,16.95
2022-12-31T18:19:02.432Z,16.08
2022-12-31T18:21:34.719Z,17.38
2022-12-31T18:24:05.463Z,16.15
2022-12-31T18:26:35.051Z,16.33
2022-12-31T18:29:17.474Z,18.88
2022-12-31T18:31:49.041Z,19.38
2022-12-31T18:34:17.588Z,15.63
2022-12-31T18:36:44.899Z,17.17
2022-12-31T18:39:11.755Z,17.20
2022-12-31T18:41:49.492Z,19.67
2022-12-31T18:44:16.946Z,19.05
2022-12-31T18:46:43.803Z,20.02
2022-12-31T18:49:10.680Z,20.95
2022-12-31T18:51:37.585Z,23.92
2022-12-31T18:54:04.941Z,17.63
2022-12-31T18:56:32.138Z,18.98
2022-12-31T18:58:59.938Z,18.42
2022-12-31T19:01:35.401Z,18.38
2022-12-31T19:04:27.580Z,20.48
2022-12-31T19:06:55.442Z,18.48
2022-12-31T19:12:12.939Z,17.30
2022-12-31T19:14:39.886Z,17.98
2022-12-31T19:17:12.558Z,17.23
2022-12-31T19:19:39.664Z,20.73
2022-12-31T19:22:06.480Z,17.08
2022-12-31T19:24:33.312Z,20.33
2022-12-31T19:27:01.441Z,23.55
2022-12-31T19:29:28.624Z,14.75
2022-12-31T19:31:55.569Z,22.90
2022-12-31T19:34:22.483Z,18.48
2022-12-31T19:36:49.316Z,17.13
2022-12-31T19:39:19.255Z,20.08
2022-12-31T19:41:51.457Z,19.45
2022-12-31T19:44:23.234Z,19.15
2022-12-31T19:46:50.137Z,17.50
2022-12-31T19:49:17.003Z,18.63
2022-12-31T19:51:43.865Z,19.75
2022-12-31T19:54:13.442Z,15.55
2022-12-31T19:56:40.444Z,16.88
2022-12-31T19:59:09.578Z,17.25
2022-12-31T20:01:36.553Z,15.50
2022-12-31T20:04:03.749Z,14.32
2022-12-31T20:06:30.598Z,14.32
2022-12-31T20:08:57.481Z,14.45
2022-12-31T20:11:24.759Z,12.63
2022-12-31T20:13:53.931Z,17.13
2022-12-31T20:16:23.792Z,15.38
2022-12-31T20:18:50.891Z,14.65
2022-12-31T20:21:23.281Z,17.83
2022-12-31T20:23:51.524Z,18.75
2022-12-31T20:26:19.309Z,13.82
2022-12-31T20:28:46.501Z,14.15
2022-12-31T20:31:18.657Z,15.65
2022-12-31T20:33:45.730Z,11.18
2022-12-31T20:36:15.191Z,18.17
2022-12-31T20:38:42.117Z,17.65
2022-12-31T20:41:17.521Z,16.70
2022-12-31T20:43:45.395Z,16.63
2022-12-31T20:46:24.865Z,16.30
2022-12-31T20:48:55.454Z,15.70
2022-12-31T20:51:23.146Z,15.82
2022-12-31T20:53:55.986Z,22.52
2022-12-31T20:56:23.998Z,18.92
2022-12-31T20:58:50.902Z,19.42
2022-12-31T21:01:18.652Z,19.20
2022-12-31T21:04:04.808Z,18.00
2022-12-31T21:06:33.614Z,20.02
2022-12-31T21:09:02.328Z,17.55
2022-12-31T21:11:47.845Z,19.60
2022-12-31T21:14:14.884Z,18.27
2022-12-31T21:16:41.737Z,17.67
2022-12-31T21:19:09.956Z,18.92
2022-12-31T21:21:37.519Z,13.60
2022-12-31T21:24:04.740Z,15.60
2022-12-31T21:26:31.751Z,14.07
2022-12-31T21:28:59.003Z,14.45
2022-12-31T21:31:25.982Z,18.15
2022-12-31T21:33:53.393Z,21.08
2022-12-31T21:36:20.297Z,21.08
2022-12-31T21:38:47.150Z,21.20
2022-12-31T21:41:34.062Z,18.23
2022-12-31T21:44:02.580Z,21.75
2022-12-31T21:46:29.699Z,16.05
2022-12-31T21:48:58.317Z,17.40
2022-12-31T21:51:25.687Z,18.52
2022-12-31T21:53:52.924Z,18.92
2022-12-31T21:56:21.371Z,15.57
2022-12-31T21:59:17.273Z,16.77
2022-12-31T22:02:03.085Z,12.80
2022-12-31T22:07:17.472Z,13.32
2022-12-31T22:09:44.356Z,14.55
2022-12-31T22:12:11.549Z,18.52
2022-12-31T22:14:38.438Z,14.52
2022-12-31T22:17:05.337Z,15.55
2022-12-31T22:19:39.302Z,16.95
2022-12-31T22:22:19.010Z,16.83
2022-12-31T22:24:45.867Z,10.70
2022-12-31T22:27:28.874Z,14.05
2022-12-31T22:29:56.686Z,10.45
2022-12-31T22:32:23.511Z,14.13
2022-12-31T22:34:50.320Z,15.48
2022-12-31T22:37:46.464Z,12.95
2022-12-31T22:40:04.940Z,15.13
2022-12-31T22:42:31.841Z,12.63
2022-12-31T22:44:58.651Z,11.68
2022-12-31T22:47:25.506Z,11.27
2022-12-31T22:49:52.426Z,16.40
2022-12-31T22:52:19.250Z,14.50
2022-12-31T22:54:46.051Z,12.27
2022-12-31T22:57:19.654Z,12.77
2022-12-31T22:59:46.997Z,16.55
2022-12-31T23:02:13.944Z,11.68
2022-12-31T23:04:40.757Z,11.95
2022-12-31T23:07:07.646Z,9.93
2022-12-31T23:09:53.026Z,11.68
2022-12-31T23:12:19.896Z,16.25
2022-12-31T23:15:05.267Z,12.23
2022-12-31T23:17:50.708Z,13.77
2022-12-31T23:20:38.651Z,15.05
2022-12-31T23:23:09.260Z,15.98
2022-12-31T23:25:46.407Z,16.70
2022-12-31T23:28:18.069Z,15.82
2022-12-31T23:30:45.405Z,14.10
2022-12-31T23:33:18.526Z,18.95
2022-12-31T23:35:45.761Z,21.88
2022-12-31T23:38:13.470Z,19.63
2022-12-31T23:40:40.838Z,25.48
2022-12-31T23:43:10.087Z,22.75
2022-12-31T23:45:37.171Z,20.85
2022-12-31T23:48:04.358Z,22.08
2022-12-31T23:50:31.230Z,23.35
2022-12-31T23:52:58.028Z,23.80
2022-12-31T23:55:24.911Z,25.90
2022-12-31T23:57:51.768Z,20.10
